TimeCST,TemperatureF,Dew PointF,Humidity,Sea Level PressureIn,VisibilityMPH,Wind Direction,Wind SpeedMPH,Gust SpeedMPH,PrecipitationIn,Events,Conditions,WindDirDegrees,DateUTC
12:53 AM,19.0,10.9,71,30.10,10.0,NW,13.8,25.3,0.00,,Overcast,320,2014-01-15 06:53:00
1:53 AM,18.0,9.0,68,30.12,10.0,NW,13.8,27.6,0.00,,Overcast,320,2014-01-15 07:53:00
2:53 AM,17.1,9.0,71,30.13,10.0,NW,13.8,21.9,0.00,,Overcast,310,2014-01-15 08:53:00
3:53 AM,16.0,8.1,71,30.15,10.0,NW,9.2,26.5,N/A,,Mostly Cloudy,310,2014-01-15 09:53:00
4:07 AM,15.1,8.1,74,30.12,10.0,NW,15.0,23.0,N/A,,Scattered Clouds,320,2014-01-15 10:07:00
4:25 AM,15.1,8.1,74,30.12,10.0,NW,8.1,17.3,N/A,,Mostly Cloudy,310,2014-01-15 10:25:00
4:53 AM,15.1,7.0,70,30.15,10.0,NW,15.0,23.0,N/A,,Overcast,320,2014-01-15 10:53:00
5:53 AM,14.0,8.1,77,30.17,9.0,NW,15.0,19.6,N/A,,Overcast,320,2014-01-15 11:53:00
6:14 AM,14.0,7.0,74,30.14,10.0,NW,12.7,20.7,N/A,,Overcast,320,2014-01-15 12:14:00
6:32 AM,12.9,7.0,77,30.15,10.0,NW,10.4,-,N/A,,Overcast,310,2014-01-15 12:32:00
6:53 AM,12.9,6.1,74,30.19,10.0,NW,12.7,-,N/A,,Overcast,320,2014-01-15 12:53:00
7:36 AM,12.9,6.1,74,30.16,10.0,NW,12.7,20.7,N/A,,Mostly Cloudy,320,2014-01-15 13:36:00
7:44 AM,12.0,6.1,77,30.16,10.0,NW,10.4,-,N/A,,Scattered Clouds,320,2014-01-15 13:44:00
7:53 AM,12.0,6.1,77,30.19,10.0,NW,10.4,19.6,N/A,,Scattered Clouds,310,2014-01-15 13:53:00
8:41 AM,12.9,6.1,74,30.17,9.0,NW,10.4,-,N/A,,Mostly Cloudy,320,2014-01-15 14:41:00
8:53 AM,14.0,6.1,71,30.21,10.0,NNW,9.2,-,N/A,,Mostly Cloudy,330,2014-01-15 14:53:00
9:25 AM,15.1,7.0,70,30.17,10.0,NW,10.4,-,N/A,,Mostly Cloudy,310,2014-01-15 15:25:00
9:53 AM,15.1,7.0,70,30.22,10.0,NW,10.4,-,N/A,,Overcast,320,2014-01-15 15:53:00
10:16 AM,16.0,7.0,68,30.18,10.0,NW,10.4,19.6,N/A,,Scattered Clouds,320,2014-01-15 16:16:00
10:53 AM,18.0,8.1,65,30.21,10.0,NW,8.1,19.6,N/A,,Mostly Cloudy,320,2014-01-15 16:53:00
11:53 AM,19.9,9.0,62,30.18,10.0,NW,8.1,-,N/A,,Mostly Cloudy,320,2014-01-15 17:53:00
12:03 PM,19.0,9.0,65,30.14,10.0,NW,8.1,-,N/A,,Scattered Clouds,310,2014-01-15 18:03:00
12:53 PM,19.9,9.0,62,30.15,10.0,West,9.2,-,N/A,,Partly Cloudy,260,2014-01-15 18:53:00
1:53 PM,21.0,10.0,63,30.12,10.0,West,11.5,-,N/A,,Clear,260,2014-01-15 19:53:00
2:53 PM,21.9,10.0,60,30.12,7.0,West,11.5,-,N/A,,Scattered Clouds,270,2014-01-15 20:53:00
3:40 PM,21.9,10.9,63,30.07,7.0,WSW,10.4,20.7,N/A,,Mostly Cloudy,240,2014-01-15 21:40:00
3:48 PM,21.2,10.4,63,30.06,5.0,SW,5.8,-,N/A,,Haze,230,2014-01-15 21:48:00
3:53 PM,21.9,10.9,63,30.10,6.0,WSW,9.2,-,N/A,,Haze,240,2014-01-15 21:53:00
4:53 PM,21.0,10.9,65,30.07,10.0,SSW,9.2,-,N/A,,Clear,200,2014-01-15 22:53:00
5:53 PM,21.0,12.9,71,30.06,10.0,SSW,8.1,-,N/A,,Clear,200,2014-01-15 23:53:00
6:53 PM,21.0,12.9,71,30.02,10.0,South,8.1,-,N/A,,Mostly Cloudy,190,2014-01-16 00:53:00
7:53 PM,23.0,14.0,68,29.98,10.0,South,13.8,-,N/A,,Overcast,190,2014-01-16 01:53:00
8:53 PM,24.1,14.0,65,29.94,10.0,South,13.8,-,N/A,,Overcast,190,2014-01-16 02:53:00
9:53 PM,25.0,15.1,66,29.90,10.0,SSW,12.7,-,N/A,,Overcast,200,2014-01-16 03:53:00
10:53 PM,25.0,15.1,66,29.86,10.0,South,13.8,-,N/A,,Overcast,190,2014-01-16 04:53:00
11:53 PM,27.0,15.1,61,29.82,6.0,SSW,21.9,27.6,0.00,Snow,Light Snow,200,2014-01-16 05:53:00